Terminal Aerodrome Forecast
Issued by NWS

Home | Current Version | Previous Version | Text Only | Print | Product List | Glossary Off
Versions: 1 2 3 4 5 6 7 8 9 10 11 12 13 14 15 16 17 18 19 20 21 22

000
FTUS43 KICT 242322
TAFRSL
TAF
KRSL 242322Z 2500/2524 11012KT P6SM VCTS SCT015 BKN030CB
      TEMPO 2500/2502 VRB25G45KT 2SM +TSRA OVC015CB
     FM250300 29008KT P6SM BKN090
     FM251200 31012KT P6SM SKC
     FM251900 36010KT P6SM SCT050=

USA.gov is the U.S. government's official web portal to all federal, state and local government web resources and services.